Meteo Giornale » Osservazioni meteo Italia » Catania-Fontanarossa

ore: 06:20 - Osservazioni Meteo Catania-Fontanarossa
Lat. 37° 28' N Lon. 15° 3' E Alt. 11 metri s.l.m.

sereno Europe/Rome

22 °C

Sereno

Temp. 24 Ore

22 °C

34 °C

Ovest/Sud-Ovest

7.4 Km/h

Dew point 12 °C

Umidità 53 %

Visibilità  10 Km

Il sole sorge alle ore 05:59

Il sole tramonta alle ore 20:13

Data e Ora Cielo e Fenomeni T °C DP °C Um. % Pres. hPa Vis. km Vento km/h
Oggi h: 06:20 sereno Sereno 22 12 53 1015 10 O/SO 7.4
Oggi h: 05:50 sereno Sereno 22 12 53 1015 10 O/SO 9.3
Oggi h: 05:20 sereno Sereno 22 12 53 1015 10 N 3.7
Oggi h: 04:50 sereno Sereno 23 12 49 1015 10 O/SO 9.3
Oggi h: 04:20 sereno Sereno 24 11 43 1015 10 N 5.5
Oggi h: 03:50 sereno Sereno 24 11 43 1015 10 O/SO 14.8
Oggi h: 03:20 sereno Sereno 22 12 53 1015 10 O/SO 7.4
Oggi h: 02:50 sereno Sereno 23 12 49 1015 10 O 11.1
Oggi h: 02:20 sereno Sereno 23 13 53 1015 10 O 9.3
Oggi h: 01:50 sereno Sereno 23 13 53 1015 10 O/SO 9.3
Oggi h: 01:20 sereno Sereno 23 13 53 1016 10 O/SO 11.1
Oggi h: 00:50 sereno Sereno 25 13 47 1016 10 O/SO 7.4
Oggi h: 00:20 sereno Sereno 26 13 44 1016 10 O/SO 9.3
Ieri h: 23:50 sereno Sereno 27 12 39 1016 10 N 3.7
Ieri h: 23:20 sereno Sereno 26 13 44 1016 10 O/SO 9.3
Ieri h: 22:50 sereno Sereno 26 12 41 1016 10 N 7.4
Ieri h: 22:20 sereno Sereno 30 11 30 1016 10 N 5.5
Ieri h: 21:50 sereno Sereno 30 9 27 1016 10 N 3.7
Ieri h: 21:20 sereno Sereno 31 9 25 1016 10 N/NE 9.3
Ieri h: 20:50 sereno Sereno 31 9 25 1016 10 N/NE 9.3
Ieri h: 20:20 sereno Sereno 32 8 22 1016 10 NE 11.1
Ieri h: 19:50 sereno Sereno 32 8 22 1016 10 E/NE 13
Ieri h: 19:20 sereno Sereno 33 9 22 1015 10 E/NE 13
Ieri h: 18:50 sereno Sereno 33 10 24 1015 10 E/NE 13
Ieri h: 18:20 sereno Sereno 33 11 26 1015 10 E/NE 14.8
Ieri h: 17:50 sereno Sereno 34 11 24 1016 10 E/NE 16.7
Ieri h: 17:20 sereno Sereno 33 13 29 1016 10 E 16.7
Ieri h: 16:50 sereno Sereno 34 12 26 1016 10 E/NE 16.7
Ieri h: 16:20 sereno Sereno 34 11 24 1016 10 E/NE 16.7
Ieri h: 15:50 sereno Sereno 34 11 24 1016 10 E/NE 16.7
Ieri h: 15:20 sereno Sereno 33 12 27 1016 10 E 18.5
Ieri h: 14:50 sereno Sereno 33 12 27 1016 10 E 16.7
Ieri h: 14:20 sereno Sereno 33 13 29 1017 10 E 14.8
Ieri h: 13:50 sereno Sereno 33 14 31 1017 10 E 16.7
Ieri h: 13:20 sereno Sereno 32 16 38 1017 10 E 16.7
Ieri h: 12:50 sereno Sereno 33 16 36 1017 10 E 16.7
Ieri h: 12:20 sereno Sereno 33 16 36 1017 10 E/NE 18.5
Ieri h: 11:50 sereno Sereno 33 17 38 1017 10 E/NE 16.7
Ieri h: 11:20 sereno Sereno 32 17 40 1017 10 E/NE 14.8
Ieri h: 10:50 sereno Sereno 32 19 46 1017 10 E/NE 14.8
Ieri h: 10:20 sereno Sereno 34 9 21 1017 10 O 14.8
Ieri h: 09:50 sereno Sereno 34 8 20 1017 10 O 20.3
Ieri h: 09:20 sereno Sereno 32 9 24 1017 10 O/SO 22.2
Ieri h: 08:50 sereno Sereno 31 9 25 1017 10 O 18.5
Ieri h: 08:20 sereno Sereno 30 11 30 1017 10 O 18.5
Ieri h: 07:50 sereno Sereno 25 14 50 1017 10 O/SO 13
Ieri h: 07:20 sereno Sereno 24 14 53 1016 10 O/SO 14.8